createdAt,value
2018-04-14T00:00:48.053Z,6.20
2018-04-14T00:03:16.398Z,6.20
2018-04-14T00:05:43.953Z,6.20
2018-04-14T00:08:12.278Z,6.20
2018-04-14T00:10:39.850Z,6.20
2018-04-14T00:13:07.400Z,6.20
2018-04-14T00:15:35.004Z,6.30
2018-04-14T00:18:02.571Z,6.20
2018-04-14T00:20:30.891Z,6.20
2018-04-14T00:22:58.470Z,6.20
2018-04-14T00:25:26.019Z,6.20
2018-04-14T00:27:53.648Z,6.20
2018-04-14T00:30:21.234Z,6.10
2018-04-14T00:32:49.590Z,6.10
2018-04-14T00:35:17.121Z,6.10
2018-04-14T00:37:44.803Z,6.10
2018-04-14T00:40:12.347Z,6.10
2018-04-14T00:42:39.962Z,6.10
2018-04-14T00:45:07.533Z,6.10
2018-04-14T00:47:35.182Z,6.00
2018-04-14T00:50:02.718Z,6.00
2018-04-14T00:52:30.243Z,6.00
2018-04-14T00:54:57.835Z,6.00
2018-04-14T00:57:25.418Z,6.00
2018-04-14T00:59:53.722Z,6.00
2018-04-14T01:02:21.283Z,5.90
2018-04-14T01:04:48.824Z,6.00
2018-04-14T01:07:16.463Z,5.90
2018-04-14T01:09:43.989Z,5.90
2018-04-14T01:12:11.610Z,5.90
2018-04-14T01:14:39.962Z,5.80
2018-04-14T01:17:07.479Z,5.80
2018-04-14T01:19:35.070Z,5.80
2018-04-14T01:22:02.626Z,5.80
2018-04-14T01:24:30.154Z,5.80
2018-04-14T01:26:57.653Z,5.80
2018-04-14T01:29:25.203Z,5.80
2018-04-14T01:31:53.468Z,5.80
2018-04-14T01:34:21.074Z,5.80
2018-04-14T01:36:48.602Z,5.80
2018-04-14T01:39:16.953Z,5.80
2018-04-14T01:41:44.477Z,5.70
2018-04-14T01:44:12.087Z,5.80
2018-04-14T01:46:39.601Z,5.80
2018-04-14T01:49:07.889Z,5.80
2018-04-14T01:51:36.149Z,5.80
2018-04-14T01:54:03.736Z,5.80
2018-04-14T01:56:32.063Z,5.80
2018-04-14T01:58:59.707Z,5.80
2018-04-14T02:01:27.269Z,5.80
2018-04-14T02:03:54.907Z,5.80
2018-04-14T02:06:22.469Z,5.80
2018-04-14T02:08:50.051Z,5.80
2018-04-14T02:11:17.590Z,5.80
2018-04-14T02:13:45.160Z,5.80
2018-04-14T02:16:12.756Z,5.80
2018-04-14T02:18:40.430Z,5.80
2018-04-14T02:21:07.933Z,5.80
2018-04-14T02:23:36.241Z,5.70
2018-04-14T02:26:03.729Z,5.70
2018-04-14T02:28:31.311Z,5.70
2018-04-14T02:30:59.612Z,5.70
2018-04-14T02:33:27.176Z,5.70
2018-04-14T02:35:54.691Z,5.70
2018-04-14T02:38:22.289Z,5.70
2018-04-14T02:40:49.843Z,5.70
2018-04-14T02:43:17.397Z,5.70
2018-04-14T02:45:45.731Z,5.70
2018-04-14T02:48:13.305Z,5.70
2018-04-14T02:50:40.888Z,5.70
2018-04-14T02:53:08.498Z,5.70
2018-04-14T02:55:36.050Z,5.70
2018-04-14T02:58:04.470Z,5.70
2018-04-14T03:00:32.018Z,5.70
2018-04-14T03:02:59.543Z,5.70
2018-04-14T03:05:27.126Z,5.70
2018-04-14T03:07:54.694Z,5.70
2018-04-14T03:10:22.314Z,5.60
2018-04-14T03:12:49.806Z,5.60
2018-04-14T03:15:17.335Z,5.60
2018-04-14T03:17:44.861Z,5.60
2018-04-14T03:20:12.408Z,5.60
2018-04-14T03:22:39.901Z,5.60
2018-04-14T03:25:07.402Z,5.60
2018-04-14T03:27:34.946Z,5.60
2018-04-14T03:30:02.507Z,5.60
2018-04-14T03:32:30.034Z,5.60
2018-04-14T03:34:57.608Z,5.60
2018-04-14T03:37:25.861Z,5.60
2018-04-14T03:39:53.429Z,5.60
2018-04-14T03:42:20.913Z,5.60
2018-04-14T03:44:49.262Z,5.60
2018-04-14T03:47:16.797Z,5.60
2018-04-14T03:49:44.388Z,5.60
2018-04-14T03:52:11.942Z,5.70
2018-04-14T03:54:39.448Z,5.70
2018-04-14T03:57:07.035Z,5.70
2018-04-14T03:59:34.571Z,5.70
2018-04-14T04:02:02.137Z,5.70
2018-04-14T04:04:29.709Z,5.70
2018-04-14T04:06:57.235Z,5.70
2018-04-14T04:09:25.503Z,5.70
2018-04-14T04:11:53.058Z,5.60
2018-04-14T04:14:20.556Z,5.60
2018-04-14T04:16:48.122Z,5.60
2018-04-14T04:19:27.550Z,5.60
2018-04-14T04:22:06.839Z,5.50
2018-04-14T04:24:45.897Z,5.40
2018-04-14T04:27:13.436Z,5.30
2018-04-14T04:29:40.976Z,5.20
2018-04-14T04:32:08.564Z,5.20
2018-04-14T04:34:36.067Z,5.20
2018-04-14T04:37:03.589Z,5.10
2018-04-14T04:39:31.121Z,5.10
2018-04-14T04:41:58.700Z,5.10
2018-04-14T04:44:26.199Z,5.00
2018-04-14T04:46:53.741Z,5.00
2018-04-14T04:49:21.258Z,5.00
2018-04-14T04:51:49.535Z,5.00
2018-04-14T04:54:17.047Z,4.90
2018-04-14T04:56:44.553Z,5.00
2018-04-14T04:59:12.797Z,5.00
2018-04-14T05:01:40.289Z,4.90
2018-04-14T05:04:07.763Z,5.00
2018-04-14T05:06:35.262Z,5.10
2018-04-14T05:09:02.741Z,5.10
2018-04-14T05:11:30.251Z,5.10
2018-04-14T05:13:57.737Z,5.10
2018-04-14T05:16:25.233Z,5.20
2018-04-14T05:18:53.482Z,5.20
2018-04-14T05:21:20.978Z,5.20
2018-04-14T05:23:49.441Z,5.20
2018-04-14T05:26:17.765Z,5.20
2018-04-14T05:28:45.254Z,5.20
2018-04-14T05:31:12.736Z,5.20
2018-04-14T05:33:41.009Z,5.30
2018-04-14T05:36:08.498Z,5.20
2018-04-14T05:38:36.774Z,5.30
2018-04-14T05:41:04.262Z,5.20
2018-04-14T05:43:31.768Z,5.30
2018-04-14T05:45:59.257Z,5.30
2018-04-14T05:48:26.767Z,5.40
2018-04-14T05:50:54.266Z,5.40
2018-04-14T05:53:22.628Z,5.50
2018-04-14T05:55:50.183Z,5.50
2018-04-14T05:58:18.449Z,5.70
2018-04-14T06:00:45.939Z,5.70
2018-04-14T06:03:13.455Z,5.80
2018-04-14T06:05:40.940Z,5.90
2018-04-14T06:08:09.209Z,5.90
2018-04-14T06:10:36.690Z,5.90
2018-04-14T06:13:04.949Z,6.20
2018-04-14T06:15:32.470Z,6.10
2018-04-14T06:17:59.961Z,6.30
2018-04-14T06:20:27.447Z,6.50
2018-04-14T06:22:55.705Z,6.80
2018-04-14T06:25:23.182Z,6.70
2018-04-14T06:27:51.454Z,7.20
2018-04-14T06:30:19.697Z,7.40
2018-04-14T06:32:47.187Z,7.30
2018-04-14T06:35:14.693Z,7.60
2018-04-14T06:37:42.197Z,7.80
2018-04-14T06:40:10.471Z,8.10
2018-04-14T06:42:37.941Z,8.00
2018-04-14T06:45:06.209Z,8.40
2018-04-14T06:47:33.691Z,8.40
2018-04-14T06:50:01.954Z,8.70
2018-04-14T06:52:30.202Z,8.80
2018-04-14T06:54:57.700Z,8.80
2018-04-14T06:57:25.947Z,9.20
2018-04-14T06:59:53.433Z,9.10
2018-04-14T07:02:20.901Z,9.30
2018-04-14T07:04:48.402Z,9.50
2018-04-14T07:07:16.141Z,9.60
2018-04-14T07:09:43.634Z,9.80
2018-04-14T07:12:11.113Z,9.90
2018-04-14T07:14:38.605Z,10.00
2018-04-14T07:17:06.123Z,10.20
2018-04-14T07:19:33.643Z,10.30
2018-04-14T07:22:01.141Z,10.50
2018-04-14T07:24:28.633Z,10.70
2018-04-14T07:26:56.878Z,11.00
2018-04-14T07:29:24.387Z,11.00
2018-04-14T07:31:51.878Z,11.20
2018-04-14T07:34:19.368Z,11.40
2018-04-14T07:36:46.841Z,11.60
2018-04-14T07:39:15.103Z,12.00
2018-04-14T07:41:42.594Z,12.00
2018-04-14T07:44:10.097Z,12.30
2018-04-14T07:46:37.593Z,12.50
2018-04-14T07:49:05.875Z,12.70
2018-04-14T07:51:34.176Z,12.90
2018-04-14T07:54:02.405Z,13.00
2018-04-14T07:56:29.907Z,13.00
2018-04-14T07:58:58.150Z,13.30
2018-04-14T08:01:25.650Z,13.20
2018-04-14T08:03:53.126Z,13.40
2018-04-14T08:06:20.620Z,13.60
2018-04-14T08:08:48.105Z,13.80
2018-04-14T08:11:16.370Z,14.20
2018-04-14T08:13:44.616Z,14.30
2018-04-14T08:16:12.113Z,14.30
2018-04-14T08:18:40.361Z,14.40
2018-04-14T08:21:07.857Z,14.40
2018-04-14T08:23:36.138Z,14.80
2018-04-14T08:26:03.642Z,14.80
2018-04-14T08:28:31.136Z,15.10
2018-04-14T08:30:59.417Z,15.30
2018-04-14T08:33:27.662Z,15.40
2018-04-14T08:35:55.197Z,15.40
2018-04-14T08:38:22.681Z,15.50
2018-04-14T08:40:50.188Z,15.60
2018-04-14T08:43:18.442Z,15.70
2018-04-14T08:45:46.721Z,15.90
2018-04-14T08:48:14.210Z,15.80
2018-04-14T08:50:41.720Z,16.10
2018-04-14T08:53:09.193Z,16.10
2018-04-14T08:55:36.697Z,16.10
2018-04-14T08:58:04.186Z,15.90
2018-04-14T09:00:31.691Z,15.90
2018-04-14T09:02:59.943Z,16.00
2018-04-14T09:05:27.457Z,15.90
2018-04-14T09:07:54.946Z,16.00
2018-04-14T09:10:22.416Z,16.00
2018-04-14T09:12:49.933Z,16.00
2018-04-14T09:15:17.422Z,16.10
2018-04-14T09:17:44.920Z,16.10
2018-04-14T09:20:13.185Z,16.00
2018-04-14T09:22:40.686Z,15.90
2018-04-14T09:25:08.178Z,15.90
2018-04-14T09:27:35.681Z,15.90
2018-04-14T09:30:03.939Z,15.90
2018-04-14T09:32:32.209Z,15.90
2018-04-14T09:34:59.693Z,15.80
2018-04-14T09:37:27.953Z,16.10
2018-04-14T09:39:55.442Z,16.00
2018-04-14T09:42:23.715Z,16.30
2018-04-14T09:44:51.960Z,16.20
2018-04-14T09:47:19.462Z,16.10
2018-04-14T09:49:46.947Z,16.20
2018-04-14T09:52:14.455Z,16.20
2018-04-14T09:54:42.713Z,16.40
2018-04-14T09:57:10.218Z,16.40
2018-04-14T09:59:37.697Z,16.40
2018-04-14T10:02:05.197Z,16.50
2018-04-14T10:04:32.677Z,16.50
2018-04-14T10:07:00.950Z,16.60
2018-04-14T10:09:29.525Z,16.60
2018-04-14T10:11:57.021Z,16.50
2018-04-14T10:14:24.518Z,16.70
2018-04-14T10:16:52.009Z,16.70
2018-04-14T10:19:20.257Z,16.70
2018-04-14T10:21:48.728Z,16.70
2018-04-14T10:24:16.225Z,16.80
2018-04-14T10:26:44.505Z,16.80
2018-04-14T10:29:12.759Z,16.80
2018-04-14T10:31:40.246Z,16.80
2018-04-14T10:34:08.555Z,17.00
2018-04-14T10:36:36.045Z,16.90
2018-04-14T10:39:03.549Z,17.10
2018-04-14T10:41:31.793Z,17.00
2018-04-14T10:43:59.297Z,17.00
2018-04-14T10:46:26.785Z,17.00
2018-04-14T10:48:54.285Z,17.10
2018-04-14T10:51:21.953Z,17.10
2018-04-14T10:53:50.226Z,17.20
2018-04-14T10:56:17.757Z,17.10
2018-04-14T10:58:45.446Z,17.30
2018-04-14T11:01:12.935Z,17.50
2018-04-14T11:03:41.317Z,17.60
2018-04-14T11:06:08.797Z,17.60
2018-04-14T11:08:37.518Z,17.60
2018-04-14T11:11:05.002Z,17.60
2018-04-14T11:13:33.282Z,17.40
2018-04-14T11:16:01.535Z,17.20
2018-04-14T11:18:29.051Z,17.10
2018-04-14T11:20:56.590Z,17.00
2018-04-14T11:23:24.854Z,17.00
2018-04-14T11:25:53.122Z,17.20
2018-04-14T11:28:20.786Z,17.10
2018-04-14T11:30:48.303Z,17.40
2018-04-14T11:33:15.809Z,17.60
2018-04-14T11:35:43.294Z,17.60
2018-04-14T11:38:10.794Z,17.70
2018-04-14T11:40:38.757Z,17.70
2018-04-14T11:43:06.343Z,17.80
2018-04-14T11:45:33.834Z,17.90
2018-04-14T11:48:01.313Z,18.10
2018-04-14T11:50:28.813Z,18.10
2018-04-14T11:52:57.061Z,18.20
2018-04-14T11:55:24.571Z,18.10
2018-04-14T11:57:52.045Z,18.20
2018-04-14T12:00:19.546Z,18.30
2018-04-14T12:02:47.046Z,18.40
2018-04-14T12:05:14.557Z,18.50
2018-04-14T12:07:42.037Z,18.50
2018-04-14T12:10:10.316Z,18.50
2018-04-14T12:12:37.842Z,18.50
2018-04-14T12:15:05.337Z,18.50
2018-04-14T12:17:33.581Z,18.40
2018-04-14T12:20:01.082Z,18.40
2018-04-14T12:22:29.321Z,18.30
2018-04-14T12:24:56.900Z,18.30
2018-04-14T12:27:24.381Z,18.40
2018-04-14T12:29:52.645Z,18.40
2018-04-14T12:32:20.894Z,18.40
2018-04-14T12:34:48.397Z,18.30
2018-04-14T12:37:15.889Z,18.30
2018-04-14T12:39:43.382Z,18.10
2018-04-14T12:42:10.864Z,18.10
2018-04-14T12:44:38.383Z,18.10
2018-04-14T12:47:05.870Z,18.20
2018-04-14T12:49:33.383Z,18.30
2018-04-14T12:52:00.863Z,18.40
2018-04-14T12:54:28.395Z,18.50
2018-04-14T12:56:55.899Z,18.60
2018-04-14T12:59:23.393Z,18.60
2018-04-14T13:01:50.898Z,18.70
2018-04-14T13:04:18.405Z,18.80
2018-04-14T13:06:46.906Z,18.80
2018-04-14T13:09:14.504Z,18.70
2018-04-14T13:11:42.000Z,18.70
2018-04-14T13:14:10.250Z,18.50
2018-04-14T13:16:37.750Z,18.40
2018-04-14T13:19:05.303Z,18.50
2018-04-14T13:21:32.758Z,18.50
2018-04-14T13:24:01.022Z,18.50
2018-04-14T13:26:29.303Z,18.50
2018-04-14T13:28:57.554Z,18.60
2018-04-14T13:31:25.055Z,18.50
2018-04-14T13:33:53.313Z,18.60
2018-04-14T13:36:21.593Z,18.70
2018-04-14T13:38:49.846Z,18.70
2018-04-14T13:41:24.869Z,18.70
2018-04-14T13:43:52.354Z,18.80
2018-04-14T13:46:19.877Z,18.70
2018-04-14T13:48:47.361Z,18.60
2018-04-14T13:51:14.869Z,18.60
2018-04-14T13:53:42.359Z,18.40
2018-04-14T13:56:09.865Z,18.40
2018-04-14T13:58:38.119Z,18.30
2018-04-14T14:01:05.640Z,18.20
2018-04-14T14:03:33.122Z,18.30
2018-04-14T14:06:00.593Z,18.30
2018-04-14T14:08:28.099Z,18.30
2018-04-14T14:10:55.581Z,18.50
2018-04-14T14:13:23.083Z,18.50
2018-04-14T14:15:50.566Z,18.60
2018-04-14T14:18:18.834Z,18.50
2018-04-14T14:20:47.088Z,18.60
2018-04-14T14:23:14.580Z,18.50
2018-04-14T14:25:42.829Z,18.60
2018-04-14T14:28:10.326Z,18.50
2018-04-14T14:30:37.797Z,18.50
2018-04-14T14:33:05.293Z,18.50
2018-04-14T14:35:32.777Z,18.50
2018-04-14T14:38:01.050Z,18.50
2018-04-14T14:40:29.300Z,18.60
2018-04-14T14:42:56.807Z,18.60
2018-04-14T14:45:25.066Z,18.70
2018-04-14T14:47:52.559Z,18.60
2018-04-14T14:50:30.486Z,18.70
2018-04-14T14:52:57.994Z,18.80
2018-04-14T14:55:26.249Z,18.90
2018-04-14T14:57:53.757Z,18.80
2018-04-14T15:00:21.245Z,18.90
2018-04-14T15:02:48.775Z,18.90
2018-04-14T15:05:17.009Z,18.90
2018-04-14T15:07:44.511Z,18.90
2018-04-14T15:10:11.987Z,19.00
2018-04-14T15:12:39.489Z,19.10
2018-04-14T15:15:06.992Z,19.10
2018-04-14T15:17:34.488Z,19.00
2018-04-14T15:20:01.985Z,19.00
2018-04-14T15:22:30.244Z,18.80
2018-04-14T15:24:57.744Z,18.80
2018-04-14T15:27:25.258Z,18.80
2018-04-14T15:29:52.757Z,18.80
2018-04-14T15:32:20.243Z,18.70
2018-04-14T15:34:47.737Z,18.70
2018-04-14T15:37:15.223Z,18.70
2018-04-14T15:39:43.494Z,18.70
2018-04-14T15:42:11.750Z,18.70
2018-04-14T15:44:39.250Z,18.60
2018-04-14T15:47:06.737Z,18.70
2018-04-14T15:49:34.239Z,18.70
2018-04-14T15:52:02.502Z,18.70
2018-04-14T15:54:29.993Z,18.60
2018-04-14T15:56:58.249Z,18.70
2018-04-14T15:59:25.759Z,18.60
2018-04-14T16:01:53.249Z,18.70
2018-04-14T16:04:20.795Z,18.60
2018-04-14T16:06:48.233Z,18.60
2018-04-14T16:09:15.736Z,18.50
2018-04-14T16:11:43.220Z,18.50
2018-04-14T16:14:11.487Z,18.40
2018-04-14T16:16:38.978Z,18.30
2018-04-14T16:19:06.480Z,18.30
2018-04-14T16:21:33.973Z,18.30
2018-04-14T16:24:02.233Z,18.20
2018-04-14T16:26:29.718Z,18.20
2018-04-14T16:28:57.990Z,18.20
2018-04-14T16:31:26.242Z,18.10
2018-04-14T16:33:53.721Z,18.10
2018-04-14T16:36:21.977Z,18.20
2018-04-14T16:38:49.466Z,18.10
2018-04-14T16:41:17.746Z,18.10
2018-04-14T16:43:45.990Z,18.00
2018-04-14T16:46:13.489Z,18.00
2018-04-14T16:48:40.977Z,18.00
2018-04-14T16:51:08.477Z,17.90
2018-04-14T16:53:35.966Z,17.90
2018-04-14T16:56:04.225Z,17.80
2018-04-14T16:58:32.487Z,17.70
2018-04-14T17:00:59.999Z,17.70
2018-04-14T17:03:27.481Z,17.70
2018-04-14T17:05:54.995Z,17.60
2018-04-14T17:08:22.483Z,17.60
2018-04-14T17:10:49.993Z,17.60
2018-04-14T17:13:17.482Z,17.60
2018-04-14T17:15:44.990Z,17.60
2018-04-14T17:18:12.469Z,17.50
2018-04-14T17:20:39.985Z,17.50
2018-04-14T17:23:07.471Z,17.50
2018-04-14T17:25:34.970Z,17.40
2018-04-14T17:28:02.448Z,17.40
2018-04-14T17:30:29.945Z,17.40
2018-04-14T17:32:57.438Z,17.40
2018-04-14T17:35:25.706Z,17.40
2018-04-14T17:37:53.958Z,17.30
2018-04-14T17:40:21.471Z,17.30
2018-04-14T17:42:48.959Z,17.30
2018-04-14T17:45:16.444Z,17.20
2018-04-14T17:47:43.941Z,17.20
2018-04-14T17:50:11.424Z,17.20
2018-04-14T17:52:38.942Z,17.10
2018-04-14T17:55:07.425Z,17.00
2018-04-14T17:57:35.704Z,17.00
2018-04-14T18:00:03.958Z,16.90
2018-04-14T18:02:31.496Z,16.90
2018-04-14T18:04:58.963Z,16.80
2018-04-14T18:07:26.461Z,16.70
2018-04-14T18:09:54.711Z,16.60
2018-04-14T18:12:22.219Z,16.60
2018-04-14T18:14:49.703Z,16.60
2018-04-14T18:17:17.202Z,16.50
2018-04-14T18:19:44.689Z,16.40
2018-04-14T18:22:12.967Z,16.30
2018-04-14T18:24:40.457Z,16.30
2018-04-14T18:27:07.956Z,16.30
2018-04-14T18:29:36.233Z,16.10
2018-04-14T18:32:03.745Z,16.10
2018-04-14T18:34:31.226Z,16.00
2018-04-14T18:36:58.723Z,16.00
2018-04-14T18:39:26.976Z,15.80
2018-04-14T18:41:54.472Z,15.80
2018-04-14T18:44:22.723Z,15.70
2018-04-14T18:46:50.258Z,15.60
2018-04-14T18:49:17.741Z,15.50
2018-04-14T18:51:45.245Z,15.40
2018-04-14T18:54:12.730Z,15.30
2018-04-14T18:56:40.204Z,15.20
2018-04-14T18:59:07.710Z,15.20
2018-04-14T19:01:35.961Z,15.00
2018-04-14T19:04:04.234Z,14.90
2018-04-14T19:06:31.710Z,14.90
2018-04-14T19:08:59.979Z,14.80
2018-04-14T19:11:27.454Z,14.70
2018-04-14T19:13:54.970Z,14.70
2018-04-14T19:16:22.453Z,14.60
2018-04-14T19:18:50.725Z,14.40
2018-04-14T19:21:18.978Z,14.30
2018-04-14T19:23:46.469Z,14.30
2018-04-14T19:26:13.957Z,14.30
2018-04-14T19:28:41.456Z,14.20
2018-04-14T19:31:08.942Z,14.10
2018-04-14T19:33:36.450Z,14.00
2018-04-14T19:36:04.702Z,13.90
2018-04-14T19:38:32.202Z,13.80
2018-04-14T19:41:00.466Z,13.80
2018-04-14T19:43:28.024Z,13.70
2018-04-14T19:45:55.457Z,13.70
2018-04-14T19:48:22.960Z,13.70
2018-04-14T19:50:50.454Z,13.70
2018-04-14T19:53:17.980Z,13.70
2018-04-14T19:55:45.478Z,13.60
2018-04-14T19:58:12.976Z,13.50
2018-04-14T20:00:40.449Z,13.50
2018-04-14T20:03:08.718Z,13.30
2018-04-14T20:05:36.969Z,13.20
2018-04-14T20:08:04.480Z,13.10
2018-04-14T20:10:31.967Z,13.10
2018-04-14T20:12:59.461Z,13.10
2018-04-14T20:15:26.969Z,13.00
2018-04-14T20:17:54.466Z,13.00
2018-04-14T20:20:21.965Z,12.90
2018-04-14T20:22:51.037Z,12.90
2018-04-14T20:25:19.518Z,12.80
2018-04-14T20:27:47.641Z,12.80
2018-04-14T20:30:15.161Z,12.80
2018-04-14T20:32:42.845Z,12.70
2018-04-14T20:35:10.725Z,12.70
2018-04-14T20:37:38.211Z,12.60
2018-04-14T20:40:05.719Z,12.60
2018-04-14T20:42:34.959Z,12.50
2018-04-14T20:45:02.468Z,12.40
2018-04-14T20:47:29.961Z,12.50
2018-04-14T20:49:57.469Z,12.40
2018-04-14T20:52:24.953Z,12.40
2018-04-14T20:54:53.222Z,12.30
2018-04-14T20:57:20.705Z,12.30
2018-04-14T20:59:48.985Z,12.30
2018-04-14T21:02:19.234Z,12.20
2018-04-14T21:04:46.733Z,12.10
2018-04-14T21:07:14.250Z,12.20
2018-04-14T21:09:41.731Z,12.10
2018-04-14T21:12:09.214Z,12.00
2018-04-14T21:14:36.717Z,11.90
2018-04-14T21:17:04.206Z,11.90
2018-04-14T21:19:31.712Z,11.90
2018-04-14T21:21:59.959Z,11.70
2018-04-14T21:24:27.454Z,11.70
2018-04-14T21:26:54.933Z,11.70
2018-04-14T21:29:22.443Z,11.70
2018-04-14T21:31:49.925Z,11.60
2018-04-14T21:34:18.206Z,11.60
2018-04-14T21:36:47.944Z,11.50
2018-04-14T21:39:15.446Z,11.50
2018-04-14T21:41:42.961Z,11.50
2018-04-14T21:44:10.446Z,11.50
2018-04-14T21:46:37.945Z,11.40
2018-04-14T21:49:06.202Z,11.30
2018-04-14T21:51:33.734Z,11.30
2018-04-14T21:54:01.220Z,11.30
2018-04-14T21:56:28.718Z,11.20
2018-04-14T21:58:56.202Z,11.10
2018-04-14T22:01:23.713Z,11.10
2018-04-14T22:03:51.197Z,10.90
2018-04-14T22:06:19.467Z,10.80
2018-04-14T22:08:47.713Z,10.80
2018-04-14T22:11:15.218Z,10.70
2018-04-14T22:13:42.703Z,10.70
2018-04-14T22:16:10.204Z,10.70
2018-04-14T22:18:38.453Z,10.60
2018-04-14T22:21:05.953Z,10.60
2018-04-14T22:23:34.198Z,10.60
2018-04-14T22:26:01.695Z,10.50
2018-04-14T22:28:30.025Z,10.50
2018-04-14T22:30:57.522Z,10.40
2018-04-14T22:33:25.777Z,10.40
2018-04-14T22:35:53.283Z,10.40
2018-04-14T22:38:20.761Z,10.40
2018-04-14T22:40:48.265Z,10.30
2018-04-14T22:43:15.749Z,10.20
2018-04-14T22:45:44.009Z,10.10
2018-04-14T22:48:12.254Z,10.10
2018-04-14T22:50:39.771Z,10.00
2018-04-14T22:53:07.256Z,10.00
2018-04-14T22:55:34.724Z,9.90
2018-04-14T22:58:02.221Z,9.90
2018-04-14T23:00:30.470Z,9.80
2018-04-14T23:02:57.974Z,9.70
2018-04-14T23:05:25.465Z,9.70
2018-04-14T23:07:52.977Z,9.70
2018-04-14T23:10:21.221Z,9.60
2018-04-14T23:12:48.717Z,9.50
2018-04-14T23:15:16.963Z,9.60
2018-04-14T23:17:44.461Z,9.50
2018-04-14T23:20:12.706Z,9.50
2018-04-14T23:22:40.230Z,9.40
2018-04-14T23:25:07.708Z,9.40
2018-04-14T23:27:35.206Z,9.40
2018-04-14T23:30:03.460Z,9.30
2018-04-14T23:32:36.614Z,9.20
2018-04-14T23:35:04.094Z,9.20
2018-04-14T23:37:31.584Z,9.20
2018-04-14T23:39:59.066Z,9.20
2018-04-14T23:42:27.334Z,9.10
2018-04-14T23:44:55.596Z,9.00
2018-04-14T23:47:23.866Z,9.00
2018-04-14T23:49:51.359Z,8.90
2018-04-14T23:52:18.869Z,9.00
2018-04-14T23:54:46.342Z,8.90
2018-04-14T23:57:13.842Z,8.90
2018-04-14T23:59:41.326Z,8.90
